createdAt,value
2023-05-09T00:00:25.156Z,10.50
2023-05-09T00:03:15.760Z,10.50
2023-05-09T00:06:03.418Z,10.40
2023-05-09T00:08:50.951Z,10.40
2023-05-09T00:11:39.096Z,10.30
2023-05-09T00:14:27.721Z,10.30
2023-05-09T00:17:15.891Z,10.30
2023-05-09T00:20:05.341Z,10.30
2023-05-09T00:22:52.889Z,10.20
2023-05-09T00:25:40.283Z,10.20
2023-05-09T00:28:27.818Z,10.20
2023-05-09T00:31:15.732Z,10.20
2023-05-09T00:34:03.234Z,10.20
2023-05-09T00:36:50.769Z,10.10
2023-05-09T00:39:38.263Z,10.00
2023-05-09T00:42:25.916Z,10.00
2023-05-09T00:45:13.561Z,9.90
2023-05-09T00:48:01.502Z,9.90
2023-05-09T00:50:53.082Z,9.80
2023-05-09T00:53:41.405Z,9.70
2023-05-09T00:56:28.928Z,9.70
2023-05-09T00:59:17.530Z,9.70
2023-05-09T01:02:05.373Z,9.70
2023-05-09T01:04:53.519Z,9.60
2023-05-09T01:08:02.931Z,9.60
2023-05-09T01:11:07.317Z,9.60
2023-05-09T01:14:12.835Z,9.60
2023-05-09T01:17:20.154Z,9.50
2023-05-09T01:20:18.695Z,9.50
2023-05-09T01:23:33.852Z,9.50
2023-05-09T01:27:05.094Z,9.40
2023-05-09T01:30:03.222Z,9.30
2023-05-09T01:32:55.833Z,9.30
2023-05-09T01:35:52.765Z,9.20
2023-05-09T01:38:44.088Z,9.20
2023-05-09T01:41:36.385Z,9.20
2023-05-09T01:44:26.743Z,9.20
2023-05-09T01:47:16.700Z,9.20
2023-05-09T01:50:06.745Z,9.20
2023-05-09T01:52:59.655Z,9.10
2023-05-09T01:55:50.528Z,9.20
2023-05-09T01:58:40.293Z,9.20
2023-05-09T02:01:29.553Z,9.20
2023-05-09T02:04:19.112Z,9.10
2023-05-09T02:07:08.348Z,9.10
2023-05-09T02:09:59.307Z,9.00
2023-05-09T02:12:46.838Z,9.00
2023-05-09T02:15:35.013Z,9.00
2023-05-09T02:18:23.149Z,9.00
2023-05-09T02:21:11.671Z,8.90
2023-05-09T02:23:59.608Z,8.90
2023-05-09T02:26:47.362Z,8.90
2023-05-09T02:29:47.739Z,8.90
2023-05-09T02:32:38.942Z,8.80
2023-05-09T02:35:29.029Z,8.80
2023-05-09T02:38:17.086Z,8.70
2023-05-09T02:41:07.644Z,8.60
2023-05-09T02:43:55.138Z,8.70
2023-05-09T02:46:42.611Z,8.60
2023-05-09T02:49:32.426Z,8.60
2023-05-09T02:52:20.120Z,8.60
2023-05-09T02:55:08.572Z,8.50
2023-05-09T02:58:05.669Z,8.40
2023-05-09T03:00:59.901Z,8.30
2023-05-09T03:03:47.613Z,8.40
2023-05-09T03:06:36.475Z,8.30
2023-05-09T03:09:23.925Z,8.30
2023-05-09T03:12:11.442Z,8.30
2023-05-09T03:14:58.890Z,8.30
2023-05-09T03:17:46.738Z,8.20
2023-05-09T03:20:34.311Z,8.20
2023-05-09T03:23:21.834Z,8.20
2023-05-09T03:26:09.315Z,8.10
2023-05-09T03:28:57.042Z,8.10
2023-05-09T03:31:44.523Z,8.10
2023-05-09T03:34:32.034Z,8.00
2023-05-09T03:37:19.651Z,8.10
2023-05-09T03:40:08.730Z,8.00
2023-05-09T03:42:56.169Z,8.00
2023-05-09T03:45:44.473Z,8.00
2023-05-09T03:48:32.108Z,8.00
2023-05-09T03:51:20.836Z,8.00
2023-05-09T03:54:08.348Z,7.90
2023-05-09T03:56:55.911Z,7.90
2023-05-09T03:59:43.475Z,7.90
2023-05-09T04:02:31.236Z,7.90
2023-05-09T04:05:19.448Z,7.90
2023-05-09T04:08:06.881Z,7.90
2023-05-09T04:10:54.400Z,7.90
2023-05-09T04:13:42.016Z,7.90
2023-05-09T04:16:31.232Z,7.90
2023-05-09T04:19:19.090Z,8.00
2023-05-09T04:22:06.672Z,7.90
2023-05-09T04:24:54.837Z,8.00
2023-05-09T04:27:42.656Z,8.00
2023-05-09T04:30:30.950Z,8.10
2023-05-09T04:33:18.591Z,8.20
2023-05-09T04:36:06.726Z,8.30
2023-05-09T04:38:54.246Z,8.70
2023-05-09T04:41:44.472Z,9.20
2023-05-09T04:44:33.280Z,9.50
2023-05-09T04:47:20.827Z,9.50
2023-05-09T04:50:09.225Z,9.40
2023-05-09T04:52:56.695Z,9.30
2023-05-09T04:55:44.223Z,9.10
2023-05-09T04:58:33.337Z,9.00
2023-05-09T05:01:20.992Z,9.00
2023-05-09T05:04:08.550Z,9.00
2023-05-09T05:06:56.288Z,9.30
2023-05-09T05:09:43.792Z,9.70
2023-05-09T05:12:31.379Z,10.40
2023-05-09T05:15:19.760Z,11.00
2023-05-09T05:18:07.294Z,11.30
2023-05-09T05:20:54.832Z,11.90
2023-05-09T05:23:42.439Z,12.50
2023-05-09T05:26:30.077Z,12.90
2023-05-09T05:29:18.018Z,13.10
2023-05-09T05:32:05.720Z,13.70
2023-05-09T05:34:53.090Z,14.10
2023-05-09T05:37:41.707Z,14.30
2023-05-09T05:40:29.288Z,14.70
2023-05-09T05:43:16.892Z,15.00
2023-05-09T05:46:04.977Z,15.20
2023-05-09T05:48:52.516Z,15.20
2023-05-09T05:51:39.934Z,15.00
2023-05-09T05:54:27.421Z,14.70
2023-05-09T05:57:14.881Z,14.40
2023-05-09T06:00:05.822Z,14.20
2023-05-09T06:02:53.517Z,13.80
2023-05-09T06:05:46.632Z,13.20
2023-05-09T06:08:34.114Z,12.80
2023-05-09T06:11:22.013Z,12.30
2023-05-09T06:14:09.855Z,12.00
2023-05-09T06:16:58.318Z,11.90
2023-05-09T06:19:45.951Z,11.90
2023-05-09T06:22:33.344Z,11.90
2023-05-09T06:25:21.185Z,12.00
2023-05-09T06:28:09.204Z,11.90
2023-05-09T06:30:57.154Z,11.90
2023-05-09T06:33:44.705Z,12.10
2023-05-09T06:36:35.340Z,12.00
2023-05-09T06:39:22.889Z,12.10
2023-05-09T06:42:10.416Z,12.20
2023-05-09T06:44:58.064Z,12.10
2023-05-09T06:47:45.674Z,12.10
2023-05-09T06:50:33.275Z,12.30
2023-05-09T06:53:20.952Z,12.20
2023-05-09T06:56:08.590Z,12.30
2023-05-09T06:58:56.168Z,12.30
2023-05-09T07:01:43.744Z,12.50
2023-05-09T07:04:31.352Z,12.60
2023-05-09T07:07:18.879Z,12.50
2023-05-09T07:10:11.766Z,12.60
2023-05-09T07:12:59.668Z,12.70
2023-05-09T07:15:47.388Z,12.80
2023-05-09T07:18:34.879Z,12.80
2023-05-09T07:21:22.404Z,12.90
2023-05-09T07:24:10.190Z,13.00
2023-05-09T07:26:57.683Z,13.00
2023-05-09T07:29:45.191Z,13.20
2023-05-09T07:32:33.041Z,13.20
2023-05-09T07:35:21.348Z,13.40
2023-05-09T07:38:08.901Z,13.30
2023-05-09T07:40:56.395Z,13.20
2023-05-09T07:43:43.864Z,13.00
2023-05-09T07:46:31.417Z,13.00
2023-05-09T07:49:18.844Z,13.40
2023-05-09T07:52:06.553Z,13.50
2023-05-09T07:54:54.794Z,13.40
2023-05-09T07:57:42.240Z,13.60
2023-05-09T08:00:32.480Z,13.80
2023-05-09T08:03:21.201Z,13.90
2023-05-09T08:06:09.817Z,14.00
2023-05-09T08:08:57.296Z,13.90
2023-05-09T08:11:45.401Z,13.90
2023-05-09T08:14:32.965Z,13.90
2023-05-09T08:17:20.521Z,14.00
2023-05-09T08:20:09.211Z,14.00
2023-05-09T08:22:56.665Z,14.10
2023-05-09T08:25:44.172Z,14.20
2023-05-09T08:28:31.608Z,14.30
2023-05-09T08:31:19.077Z,14.40
2023-05-09T08:34:06.583Z,14.60
2023-05-09T08:36:54.173Z,14.80
2023-05-09T08:39:41.799Z,14.80
2023-05-09T08:42:32.087Z,15.00
2023-05-09T08:45:29.337Z,15.10
2023-05-09T08:48:17.864Z,15.10
2023-05-09T08:51:07.167Z,15.20
2023-05-09T08:53:55.177Z,15.30
2023-05-09T08:56:43.123Z,15.40
2023-05-09T08:59:33.303Z,15.40
2023-05-09T09:02:22.070Z,15.60
2023-05-09T09:05:23.731Z,15.60
2023-05-09T09:08:18.665Z,15.70
2023-05-09T09:11:07.472Z,15.70
2023-05-09T09:14:00.380Z,15.70
2023-05-09T09:16:50.281Z,15.90
2023-05-09T09:19:41.321Z,16.10
2023-05-09T09:22:34.258Z,16.20
2023-05-09T09:25:21.722Z,16.40
2023-05-09T09:28:09.386Z,16.50
2023-05-09T09:30:57.301Z,16.50
2023-05-09T09:33:44.763Z,16.60
2023-05-09T09:36:33.106Z,16.70
2023-05-09T09:39:22.184Z,16.80
2023-05-09T09:42:13.671Z,16.80
2023-05-09T09:45:09.180Z,17.00
2023-05-09T09:47:56.664Z,17.20
2023-05-09T09:50:44.157Z,17.10
2023-05-09T09:53:39.590Z,17.10
2023-05-09T09:56:50.128Z,17.00
2023-05-09T09:59:37.666Z,17.00
2023-05-09T10:02:25.510Z,17.20
2023-05-09T10:05:22.340Z,17.20
2023-05-09T10:08:10.113Z,17.30
2023-05-09T10:10:59.893Z,17.50
2023-05-09T10:13:47.625Z,17.30
2023-05-09T10:16:43.739Z,17.60
2023-05-09T10:19:33.169Z,17.70
2023-05-09T10:22:22.358Z,17.70
2023-05-09T10:25:20.085Z,17.70
2023-05-09T10:28:23.924Z,17.90
2023-05-09T10:31:25.439Z,18.10
2023-05-09T10:34:15.502Z,18.00
2023-05-09T10:37:03.869Z,18.00
2023-05-09T10:39:53.955Z,17.90
2023-05-09T10:42:45.792Z,18.10
2023-05-09T10:45:34.877Z,17.90
2023-05-09T10:48:24.301Z,17.90
2023-05-09T10:51:13.997Z,18.00
2023-05-09T10:54:01.550Z,18.20
2023-05-09T10:56:49.034Z,18.30
2023-05-09T10:59:41.024Z,18.40
2023-05-09T11:02:32.943Z,18.40
2023-05-09T11:05:20.948Z,18.50
2023-05-09T11:08:33.412Z,18.40
2023-05-09T11:11:27.150Z,18.30
2023-05-09T11:14:49.631Z,18.40
2023-05-09T11:17:40.241Z,18.60
2023-05-09T11:20:29.558Z,18.70
2023-05-09T11:23:19.819Z,18.80
2023-05-09T11:26:09.049Z,19.00
2023-05-09T11:28:59.897Z,19.00
2023-05-09T11:32:17.071Z,18.90
2023-05-09T11:35:10.202Z,19.10
2023-05-09T11:38:03.037Z,19.10
2023-05-09T11:40:55.084Z,19.10
2023-05-09T11:43:45.012Z,19.20
2023-05-09T11:46:32.575Z,19.30
2023-05-09T11:49:20.764Z,19.50
2023-05-09T11:52:08.524Z,19.60
2023-05-09T11:54:55.984Z,19.60
2023-05-09T11:57:50.071Z,19.50
2023-05-09T12:00:45.837Z,19.50
2023-05-09T12:03:33.617Z,19.50
2023-05-09T12:06:21.941Z,19.60
2023-05-09T12:09:10.457Z,19.70
2023-05-09T12:11:57.946Z,19.90
2023-05-09T12:14:45.866Z,20.00
2023-05-09T12:17:33.492Z,19.90
2023-05-09T12:20:20.990Z,20.10
2023-05-09T12:23:11.770Z,20.20
2023-05-09T12:25:59.249Z,20.30
2023-05-09T12:28:49.105Z,20.30
2023-05-09T12:31:37.393Z,20.30
2023-05-09T12:34:25.570Z,20.10
2023-05-09T12:37:21.515Z,20.20
2023-05-09T12:40:18.475Z,20.30
2023-05-09T12:43:07.406Z,20.20
2023-05-09T12:45:55.147Z,20.10
2023-05-09T12:48:45.242Z,20.10
2023-05-09T12:51:32.742Z,20.30
2023-05-09T12:54:22.759Z,20.20
2023-05-09T12:57:23.391Z,20.30
2023-05-09T13:00:12.495Z,20.50
2023-05-09T13:03:00.451Z,20.40
2023-05-09T13:06:02.282Z,20.40
2023-05-09T13:09:02.942Z,20.50
2023-05-09T13:11:51.983Z,20.50
2023-05-09T13:14:39.584Z,20.80
2023-05-09T13:17:27.099Z,20.70
2023-05-09T13:20:15.420Z,20.60
2023-05-09T13:23:03.247Z,20.60
2023-05-09T13:25:51.558Z,20.60
2023-05-09T13:28:39.064Z,20.60
2023-05-09T13:31:26.596Z,20.50
2023-05-09T13:34:14.163Z,20.60
2023-05-09T13:37:01.610Z,20.80
2023-05-09T13:39:49.522Z,20.90
2023-05-09T13:42:37.078Z,20.70
2023-05-09T13:45:24.618Z,20.80
2023-05-09T13:48:12.075Z,21.10
2023-05-09T13:51:01.280Z,21.10
2023-05-09T13:53:48.846Z,21.20
2023-05-09T13:56:36.427Z,21.00
2023-05-09T13:59:24.139Z,21.10
2023-05-09T14:02:11.722Z,21.20
2023-05-09T14:04:59.325Z,21.10
2023-05-09T14:07:47.727Z,21.10
2023-05-09T14:10:35.268Z,21.00
2023-05-09T14:13:23.171Z,20.90
2023-05-09T14:16:10.918Z,20.80
2023-05-09T14:18:58.626Z,20.90
2023-05-09T14:21:49.159Z,21.00
2023-05-09T14:24:36.753Z,21.10
2023-05-09T14:27:25.255Z,21.20
2023-05-09T14:30:13.691Z,21.30
2023-05-09T14:33:01.463Z,21.20
2023-05-09T14:35:49.975Z,21.30
2023-05-09T14:38:37.758Z,21.30
2023-05-09T14:41:25.317Z,21.20
2023-05-09T14:44:13.285Z,21.00
2023-05-09T14:47:00.853Z,20.90
2023-05-09T14:49:48.341Z,20.90
2023-05-09T14:52:35.902Z,21.00
2023-05-09T14:55:23.668Z,21.00
2023-05-09T14:58:13.440Z,21.10
2023-05-09T15:01:01.544Z,21.30
2023-05-09T15:03:49.178Z,21.20
2023-05-09T15:06:36.810Z,21.20
2023-05-09T15:09:24.353Z,21.20
2023-05-09T15:12:11.857Z,21.10
2023-05-09T15:15:16.672Z,21.10
2023-05-09T15:18:04.210Z,21.20
2023-05-09T15:20:52.215Z,21.20
2023-05-09T15:23:39.813Z,21.10
2023-05-09T15:26:27.318Z,21.10
2023-05-09T15:29:14.850Z,21.00
2023-05-09T15:32:02.783Z,20.90
2023-05-09T15:34:50.579Z,21.00
2023-05-09T15:37:38.551Z,21.10
2023-05-09T15:40:26.410Z,21.00
2023-05-09T15:43:13.892Z,21.00
2023-05-09T15:46:01.992Z,21.10
2023-05-09T15:48:49.594Z,21.20
2023-05-09T15:51:37.185Z,21.30
2023-05-09T15:54:27.761Z,21.10
2023-05-09T15:57:16.883Z,21.20
2023-05-09T16:00:05.642Z,21.30
2023-05-09T16:02:53.314Z,21.10
2023-05-09T16:05:41.159Z,21.00
2023-05-09T16:08:28.793Z,20.90
2023-05-09T16:11:16.275Z,20.90
2023-05-09T16:14:06.904Z,20.80
2023-05-09T16:16:54.651Z,20.70
2023-05-09T16:19:42.523Z,20.50
2023-05-09T16:22:30.142Z,20.50
2023-05-09T16:25:18.177Z,20.50
2023-05-09T16:28:07.234Z,20.50
2023-05-09T16:30:54.854Z,20.40
2023-05-09T16:33:42.285Z,20.50
2023-05-09T16:36:30.485Z,20.50
2023-05-09T16:39:18.427Z,20.40
2023-05-09T16:42:06.051Z,20.50
2023-05-09T16:44:53.562Z,20.40
2023-05-09T16:47:41.089Z,20.20
2023-05-09T16:50:29.013Z,20.10
2023-05-09T16:53:18.968Z,20.10
2023-05-09T16:56:08.079Z,20.10
2023-05-09T16:58:55.568Z,20.00
2023-05-09T17:01:43.687Z,20.00
2023-05-09T17:04:31.433Z,20.00
2023-05-09T17:07:19.405Z,20.20
2023-05-09T17:10:07.568Z,20.20
2023-05-09T17:12:55.264Z,20.30
2023-05-09T17:15:42.978Z,20.30
2023-05-09T17:18:37.580Z,20.10
2023-05-09T17:21:26.024Z,20.00
2023-05-09T17:24:14.065Z,19.70
2023-05-09T17:27:02.084Z,19.50
2023-05-09T17:29:50.458Z,19.30
2023-05-09T17:32:38.020Z,19.00
2023-05-09T17:35:26.045Z,18.80
2023-05-09T17:38:13.551Z,18.80
2023-05-09T17:41:00.958Z,18.70
2023-05-09T17:43:48.480Z,18.60
2023-05-09T17:46:35.966Z,18.50
2023-05-09T17:49:23.689Z,18.50
2023-05-09T17:52:11.174Z,18.50
2023-05-09T17:54:58.948Z,18.40
2023-05-09T17:57:47.432Z,18.20
2023-05-09T18:00:35.267Z,18.10
2023-05-09T18:03:22.970Z,18.00
2023-05-09T18:06:10.510Z,17.90
2023-05-09T18:08:58.028Z,17.80
2023-05-09T18:11:45.579Z,17.80
2023-05-09T18:14:33.102Z,17.70
2023-05-09T18:17:20.596Z,17.60
2023-05-09T18:20:08.880Z,17.50
2023-05-09T18:22:59.578Z,17.50
2023-05-09T18:25:48.486Z,17.50
2023-05-09T18:28:42.128Z,17.40
2023-05-09T18:31:31.666Z,17.30
2023-05-09T18:34:19.354Z,17.20
2023-05-09T18:37:07.214Z,17.10
2023-05-09T18:39:54.908Z,17.00
2023-05-09T18:42:42.724Z,16.90
2023-05-09T18:45:30.858Z,17.00
2023-05-09T18:48:18.374Z,16.90
2023-05-09T18:51:06.164Z,16.80
2023-05-09T18:53:53.833Z,16.80
2023-05-09T18:56:42.467Z,16.70
2023-05-09T18:59:29.947Z,16.70
2023-05-09T19:02:18.420Z,16.60
2023-05-09T19:05:09.731Z,16.50
2023-05-09T19:07:59.031Z,16.40
2023-05-09T19:10:46.569Z,16.40
2023-05-09T19:13:38.325Z,16.30
2023-05-09T19:16:26.870Z,16.30
2023-05-09T19:19:14.562Z,16.20
2023-05-09T19:22:02.166Z,16.20
2023-05-09T19:24:51.586Z,16.10
2023-05-09T19:27:39.037Z,16.10
2023-05-09T19:30:26.537Z,16.00
2023-05-09T19:33:14.102Z,15.90
2023-05-09T19:36:01.634Z,15.90
2023-05-09T19:38:49.104Z,15.90
2023-05-09T19:41:36.709Z,15.80
2023-05-09T19:44:24.972Z,15.80
2023-05-09T19:47:12.437Z,15.70
2023-05-09T19:50:00.188Z,15.70
2023-05-09T19:52:47.695Z,15.60
2023-05-09T19:55:35.211Z,15.60
2023-05-09T19:58:22.867Z,15.50
2023-05-09T20:01:10.484Z,15.50
2023-05-09T20:03:58.038Z,15.40
2023-05-09T20:06:46.103Z,15.40
2023-05-09T20:09:33.648Z,15.40
2023-05-09T20:12:21.505Z,15.30
2023-05-09T20:15:09.694Z,15.30
2023-05-09T20:17:57.427Z,15.20
2023-05-09T20:20:44.989Z,15.10
2023-05-09T20:23:32.604Z,15.00
2023-05-09T20:26:20.142Z,15.00
2023-05-09T20:29:08.043Z,15.00
2023-05-09T20:31:55.727Z,14.90
2023-05-09T20:34:43.302Z,14.90
2023-05-09T20:37:30.736Z,14.90
2023-05-09T20:40:18.571Z,14.90
2023-05-09T20:43:06.204Z,14.80
2023-05-09T20:45:54.204Z,14.80
2023-05-09T20:48:41.723Z,14.70
2023-05-09T20:51:29.159Z,14.70
2023-05-09T20:54:17.864Z,14.60
2023-05-09T20:57:05.410Z,14.60
2023-05-09T20:59:52.926Z,14.60
2023-05-09T21:02:40.594Z,14.50
2023-05-09T21:05:28.220Z,14.50
2023-05-09T21:08:15.686Z,14.50
2023-05-09T21:11:03.120Z,14.40
2023-05-09T21:13:50.794Z,14.40
2023-05-09T21:16:38.659Z,14.40
2023-05-09T21:19:27.635Z,14.40
2023-05-09T21:22:15.114Z,14.30
2023-05-09T21:25:02.567Z,14.20
2023-05-09T21:27:50.505Z,14.30
2023-05-09T21:30:37.958Z,14.20
2023-05-09T21:33:25.786Z,14.10
2023-05-09T21:36:13.263Z,14.10
2023-05-09T21:39:00.818Z,14.10
2023-05-09T21:41:48.297Z,14.20
2023-05-09T21:44:36.487Z,14.10
2023-05-09T21:47:24.082Z,14.10
2023-05-09T21:50:11.856Z,14.00
2023-05-09T21:53:00.489Z,14.00
2023-05-09T21:55:47.946Z,14.00
2023-05-09T21:58:35.467Z,14.00
2023-05-09T22:01:22.970Z,13.90
2023-05-09T22:04:10.607Z,13.90
2023-05-09T22:06:58.033Z,13.90
2023-05-09T22:09:45.467Z,13.90
2023-05-09T22:12:33.775Z,13.90
2023-05-09T22:15:21.416Z,13.80
2023-05-09T22:18:08.967Z,13.80
2023-05-09T22:20:56.461Z,13.70
2023-05-09T22:23:44.297Z,13.70
2023-05-09T22:26:31.958Z,13.70
2023-05-09T22:29:19.481Z,13.70
2023-05-09T22:32:08.375Z,13.60
2023-05-09T22:34:56.945Z,13.60
2023-05-09T22:37:44.412Z,13.50
2023-05-09T22:40:32.243Z,13.50
2023-05-09T22:43:20.391Z,13.50
2023-05-09T22:46:08.123Z,13.50
2023-05-09T22:48:55.644Z,13.50
2023-05-09T22:51:43.110Z,13.40
2023-05-09T22:54:30.681Z,13.40
2023-05-09T22:57:19.266Z,13.40
2023-05-09T23:00:08.198Z,13.30
2023-05-09T23:02:55.795Z,13.30
2023-05-09T23:05:43.527Z,13.20
2023-05-09T23:08:31.083Z,13.20
2023-05-09T23:11:18.652Z,13.10
2023-05-09T23:14:06.752Z,13.10
2023-05-09T23:16:54.305Z,13.10
2023-05-09T23:19:41.779Z,13.00
2023-05-09T23:22:31.443Z,13.00
2023-05-09T23:25:19.163Z,12.90
2023-05-09T23:28:06.781Z,12.90
2023-05-09T23:30:54.871Z,12.90
2023-05-09T23:33:42.444Z,12.80
2023-05-09T23:36:29.919Z,12.80
2023-05-09T23:39:17.358Z,12.80
2023-05-09T23:42:05.013Z,12.70
2023-05-09T23:44:52.507Z,12.60
2023-05-09T23:47:39.962Z,12.60
2023-05-09T23:50:27.460Z,12.60
2023-05-09T23:53:14.902Z,12.60
2023-05-09T23:56:03.231Z,12.50
2023-05-09T23:58:50.714Z,12.50
